Aviation Digital Data Service (ADDS)

Output produced by METARs form (1331 UTC 25 June 2019)
found at http://www.aviationweather.gov/metar/data/
 
KDOV 251256Z AUTO 26008KT 10SM SCT040 BKN050 BKN130 26/22 A2984 RMK AO2 SLP108 T02640224 $
TAF KDOV 250800Z 2508/2614 20009KT 9999 BKN040 QNH2977INS 
     TEMPO 2508/2513 8000 -SHRA BKN020 
     BECMG 2513/2514 28012KT 9999 FEW040 QNH2982INS 
     BECMG 2517/2518 27009KT 9999 SKC QNH2986INS TX30/2519Z TN20/2608Z